Time;durP1;ratioP1;P1;durP2;ratioP2;P2;SDS_P1;SDS_P2;PMS_P1;PMS_P2;Temp;Humidity;BMP_temperature;BMP_pressure;BME280_temperature;BME280_humidity;BME280_pressure;Samples;Min_cycle;Max_cycle;Signal;HPM_P1;HPM_P2
2022/10/31 00:02:00;;;;;;;26.13;24.33;;;;;;;;;;5038969;28;20474;-81
2022/10/31 00:04:27;;;;;;;24.33;22.60;;;;;;;;;;5038531;28;20475;-80
2022/10/31 00:06:56;;;;;;;25.17;23.00;;;;;;;;;;5039219;28;20903;-81
2022/10/31 00:09:23;;;;;;;24.87;22.43;;;;;;;;;;5038763;28;20451;-81
2022/10/31 00:11:51;;;;;;;24.60;22.63;;;;;;;;;;5038016;28;20426;-81
2022/10/31 00:14:18;;;;;;;23.90;22.23;;;;;;;;;;5038249;28;20937;-81
2022/10/31 00:16:45;;;;;;;23.83;21.80;;;;;;;;;;5038885;28;20418;-80
2022/10/31 00:19:13;;;;;;;25.07;22.90;;;;;;;;;;5038831;28;20927;-80
2022/10/31 00:21:40;;;;;;;25.50;23.30;;;;;;;;;;5038076;28;20426;-80
2022/10/31 00:24:09;;;;;;;25.50;23.60;;;;;;;;;;5037973;28;20448;-80
2022/10/31 00:26:36;;;;;;;25.00;23.17;;;;;;;;;;5038268;28;20441;-80
2022/10/31 00:29:04;;;;;;;25.17;23.47;;;;;;;;;;5038288;28;20890;-80
2022/10/31 00:31:32;;;;;;;28.77;23.63;;;;;;;;;;5038627;28;20923;-80
2022/10/31 00:34:02;;;;;;;24.50;22.73;;;;;;;;;;5037068;28;20465;-81
2022/10/31 00:36:30;;;;;;;26.13;24.23;;;;;;;;;;5038027;28;20522;-80
2022/10/31 00:38:57;;;;;;;26.23;24.23;;;;;;;;;;5038181;28;20459;-80
2022/10/31 00:41:26;;;;;;;26.13;24.30;;;;;;;;;;5038431;28;20486;-81
2022/10/31 00:43:53;;;;;;;25.27;23.00;;;;;;;;;;5038975;28;20836;-81
2022/10/31 00:46:21;;;;;;;26.60;24.60;;;;;;;;;;5038346;28;20447;-80
2022/10/31 00:48:48;;;;;;;23.60;21.87;;;;;;;;;;5038594;28;20426;-81
2022/10/31 00:51:15;;;;;;;26.00;23.73;;;;;;;;;;5037797;28;20448;-80
2022/10/31 00:53:42;;;;;;;25.50;23.40;;;;;;;;;;5038184;28;20446;-80
2022/10/31 00:56:10;;;;;;;25.60;23.30;;;;;;;;;;5037878;28;20430;-80
2022/10/31 00:58:38;;;;;;;24.57;22.67;;;;;;;;;;5037168;28;20425;-81
2022/10/31 01:01:06;;;;;;;24.70;23.13;;;;;;;;;;5036884;28;20465;-80
2022/10/31 01:03:34;;;;;;;25.47;22.90;;;;;;;;;;5037663;28;20467;-80
2022/10/31 01:06:03;;;;;;;25.80;23.67;;;;;;;;;;5037857;28;20445;-81
2022/10/31 01:08:30;;;;;;;26.83;24.33;;;;;;;;;;5038284;28;20456;-81
2022/10/31 01:11:02;;;;;;;24.87;22.33;;;;;;;;;;5037673;28;20433;-82
2022/10/31 01:13:29;;;;;;;25.13;22.87;;;;;;;;;;5038156;28;20434;-80
2022/10/31 01:15:58;;;;;;;24.90;23.00;;;;;;;;;;5037843;28;20433;-80
2022/10/31 01:18:25;;;;;;;26.10;23.83;;;;;;;;;;5038334;28;20463;-80
2022/10/31 01:21:00;;;;;;;25.40;23.20;;;;;;;;;;5038211;28;20479;-82
2022/10/31 01:23:28;;;;;;;25.60;23.50;;;;;;;;;;5037965;28;20503;-80
2022/10/31 01:26:03;;;;;;;27.73;25.83;;;;;;;;;;5038562;28;20459;-80
2022/10/31 01:28:30;;;;;;;26.20;23.83;;;;;;;;;;5037535;28;20466;-80
2022/10/31 01:31:01;;;;;;;26.73;24.47;;;;;;;;;;5037672;28;20443;-81
2022/10/31 01:33:29;;;;;;;25.53;23.50;;;;;;;;;;5038012;28;20883;-81
2022/10/31 01:35:56;;;;;;;26.40;23.87;;;;;;;;;;5037661;28;20432;-80
2022/10/31 01:38:23;;;;;;;27.50;25.40;;;;;;;;;;5038197;28;20439;-80
2022/10/31 01:40:51;;;;;;;25.90;23.60;;;;;;;;;;5037604;28;20479;-81
2022/10/31 01:43:19;;;;;;;25.33;23.43;;;;;;;;;;5037605;28;20446;-80
2022/10/31 01:45:48;;;;;;;25.90;23.50;;;;;;;;;;5038426;28;20443;-81
2022/10/31 01:48:17;;;;;;;25.67;23.10;;;;;;;;;;5037759;28;20425;-80
2022/10/31 01:50:46;;;;;;;24.77;23.07;;;;;;;;;;5037563;28;20421;-81
2022/10/31 01:53:14;;;;;;;26.47;24.17;;;;;;;;;;5037671;28;20981;-80
2022/10/31 01:55:43;;;;;;;25.57;23.30;;;;;;;;;;5037470;28;20437;-81
2022/10/31 01:58:13;;;;;;;24.73;22.50;;;;;;;;;;5037891;28;20472;-80
2022/10/31 02:00:41;;;;;;;24.40;22.47;;;;;;;;;;5038129;28;20464;-81
2022/10/31 02:03:08;;;;;;;25.70;23.50;;;;;;;;;;5037263;28;20830;-80
2022/10/31 02:05:37;;;;;;;24.93;23.00;;;;;;;;;;5037742;28;20455;-80
2022/10/31 02:08:07;;;;;;;26.97;24.73;;;;;;;;;;5038014;28;20451;-81
2022/10/31 02:10:35;;;;;;;25.47;23.57;;;;;;;;;;5037940;28;20417;-80
2022/10/31 02:13:04;;;;;;;25.00;23.00;;;;;;;;;;5040963;28;20450;-81
2022/10/31 02:15:32;;;;;;;23.77;22.07;;;;;;;;;;5041766;28;20459;-79
2022/10/31 02:18:00;;;;;;;25.90;23.70;;;;;;;;;;5040931;28;20840;-80
2022/10/31 02:20:30;;;;;;;25.60;23.50;;;;;;;;;;5041237;28;20479;-79
2022/10/31 02:23:27;;;;;;;25.87;23.90;;;;;;;;;;5041124;28;20445;-81
2022/10/31 02:26:09;;;;;;;25.43;23.43;;;;;;;;;;4999231;28;20449;-80
2022/10/31 02:28:47;;;;;;;27.33;24.97;;;;;;;;;;5035150;28;20458;-81
2022/10/31 02:31:23;;;;;;;28.57;26.47;;;;;;;;;;5041028;28;20954;-81
2022/10/31 02:33:53;;;;;;;30.33;26.77;;;;;;;;;;5040758;28;20473;-82
2022/10/31 02:36:24;;;;;;;26.40;24.40;;;;;;;;;;5041262;28;20426;-80
2022/10/31 02:38:54;;;;;;;26.40;24.13;;;;;;;;;;5041196;28;20767;-81
2022/10/31 02:41:27;;;;;;;26.20;24.10;;;;;;;;;;5040591;28;20483;-80
2022/10/31 02:43:59;;;;;;;25.70;23.70;;;;;;;;;;5041377;28;20446;-81
2022/10/31 02:46:31;;;;;;;25.43;23.50;;;;;;;;;;5041125;28;20456;-80
2022/10/31 02:49:01;;;;;;;27.03;24.70;;;;;;;;;;5040702;28;20541;-81
2022/10/31 02:51:29;;;;;;;27.83;24.30;;;;;;;;;;5040536;28;20418;-80
2022/10/31 02:53:57;;;;;;;25.70;23.80;;;;;;;;;;5041840;28;20479;-80
2022/10/31 02:56:24;;;;;;;26.10;24.03;;;;;;;;;;5040584;28;20452;-80
2022/10/31 02:58:53;;;;;;;26.13;24.10;;;;;;;;;;5041096;28;20513;-81
2022/10/31 03:01:41;;;;;;;26.27;24.17;;;;;;;;;;5040106;28;20987;-81
2022/10/31 03:04:23;;;;;;;25.63;23.73;;;;;;;;;;5040715;28;20449;-81
2022/10/31 03:06:54;;;;;;;26.37;24.43;;;;;;;;;;5038972;28;20455;-80
2022/10/31 03:09:25;;;;;;;27.13;24.73;;;;;;;;;;5040664;28;20402;-80
2022/10/31 03:11:58;;;;;;;26.73;24.47;;;;;;;;;;5040026;28;20431;-80
2022/10/31 03:14:29;;;;;;;28.67;26.23;;;;;;;;;;5040875;28;20885;-81
2022/10/31 03:16:58;;;;;;;26.73;24.53;;;;;;;;;;5040655;28;20418;-81
2022/10/31 03:19:28;;;;;;;26.83;24.43;;;;;;;;;;5039877;28;20944;-80
2022/10/31 03:21:58;;;;;;;28.03;25.70;;;;;;;;;;5039616;28;20462;-80
2022/10/31 03:24:28;;;;;;;27.70;25.33;;;;;;;;;;5039509;28;20958;-81
2022/10/31 03:26:58;;;;;;;25.50;23.60;;;;;;;;;;5043940;28;20471;-80
2022/10/31 03:29:28;;;;;;;27.13;24.83;;;;;;;;;;5044336;28;20458;-81
2022/10/31 03:31:57;;;;;;;28.10;25.77;;;;;;;;;;5044281;28;20841;-80
2022/10/31 03:34:24;;;;;;;27.40;25.20;;;;;;;;;;5044029;28;20480;-80
2022/10/31 03:36:53;;;;;;;27.47;25.23;;;;;;;;;;5045037;28;20440;-80
2022/10/31 03:39:23;;;;;;;29.03;26.43;;;;;;;;;;5044706;28;20426;-81
2022/10/31 03:41:56;;;;;;;29.17;26.83;;;;;;;;;;5041040;28;20487;-80
2022/10/31 03:44:24;;;;;;;27.87;25.40;;;;;;;;;;5040273;28;20463;-80
2022/10/31 03:46:51;;;;;;;27.93;25.53;;;;;;;;;;5039788;28;20459;-80
2022/10/31 03:49:19;;;;;;;27.33;25.07;;;;;;;;;;5039991;28;20451;-80
2022/10/31 03:51:49;;;;;;;27.90;25.70;;;;;;;;;;5038740;28;20430;-80
2022/10/31 03:54:22;;;;;;;30.40;27.20;;;;;;;;;;5039001;28;20454;-80
2022/10/31 03:56:52;;;;;;;28.43;25.67;;;;;;;;;;5039642;28;20419;-81
2022/10/31 03:59:22;;;;;;;27.60;25.70;;;;;;;;;;5039544;28;20428;-81
2022/10/31 04:01:51;;;;;;;27.83;25.50;;;;;;;;;;5038825;28;20453;-80
2022/10/31 04:04:18;;;;;;;28.30;25.90;;;;;;;;;;5039639;28;20457;-80
2022/10/31 04:06:47;;;;;;;27.97;25.87;;;;;;;;;;5040612;28;20433;-80
2022/10/31 04:09:15;;;;;;;28.93;26.20;;;;;;;;;;5041613;28;20426;-80
2022/10/31 04:11:45;;;;;;;28.53;26.00;;;;;;;;;;5039507;28;20451;-81
2022/10/31 04:14:13;;;;;;;27.97;25.90;;;;;;;;;;5039825;28;20477;-81
2022/10/31 04:16:43;;;;;;;29.07;26.73;;;;;;;;;;5039918;28;20425;-80
2022/10/31 04:19:10;;;;;;;28.73;26.20;;;;;;;;;;5039433;28;20433;-80
2022/10/31 04:21:37;;;;;;;28.47;25.77;;;;;;;;;;5039272;28;20461;-81
2022/10/31 04:24:05;;;;;;;29.33;27.03;;;;;;;;;;5039142;28;20430;-80
2022/10/31 04:26:32;;;;;;;28.63;26.30;;;;;;;;;;5039366;28;20441;-80
2022/10/31 04:29:00;;;;;;;28.53;26.20;;;;;;;;;;5039780;28;20440;-80
2022/10/31 04:31:29;;;;;;;29.10;26.87;;;;;;;;;;5039094;28;20451;-79
2022/10/31 04:33:57;;;;;;;28.53;26.00;;;;;;;;;;5038153;28;20859;-81
2022/10/31 04:36:24;;;;;;;28.47;26.17;;;;;;;;;;5038610;28;20451;-80
2022/10/31 04:38:52;;;;;;;29.57;27.17;;;;;;;;;;5039224;28;20451;-80
2022/10/31 04:41:19;;;;;;;29.00;26.63;;;;;;;;;;5038437;28;20483;-80
2022/10/31 04:43:46;;;;;;;30.00;27.53;;;;;;;;;;5039232;28;20467;-80
2022/10/31 04:46:13;;;;;;;29.43;26.63;;;;;;;;;;5038541;28;20459;-80
2022/10/31 04:48:42;;;;;;;30.17;27.83;;;;;;;;;;5038804;28;20466;-80
2022/10/31 04:51:10;;;;;;;29.63;27.27;;;;;;;;;;5039050;28;20448;-80
2022/10/31 04:53:37;;;;;;;30.27;27.70;;;;;;;;;;5038780;28;20946;-80
2022/10/31 04:56:05;;;;;;;29.27;26.73;;;;;;;;;;5038569;28;20451;-80
2022/10/31 04:58:32;;;;;;;31.07;28.27;;;;;;;;;;5038667;28;20434;-79
2022/10/31 05:01:00;;;;;;;30.47;28.00;;;;;;;;;;5038719;28;20484;-80
2022/10/31 05:03:27;;;;;;;29.00;26.47;;;;;;;;;;5038333;28;20478;-80
2022/10/31 05:05:56;;;;;;;28.33;25.93;;;;;;;;;;5038398;28;20452;-80
2022/10/31 05:08:23;;;;;;;29.37;26.20;;;;;;;;;;5039019;28;20443;-80
2022/10/31 05:10:51;;;;;;;29.10;27.00;;;;;;;;;;5038551;28;20426;-81
2022/10/31 05:13:19;;;;;;;29.20;26.70;;;;;;;;;;5038700;28;20442;-80
2022/10/31 05:15:46;;;;;;;27.20;25.10;;;;;;;;;;5038418;28;20433;-80
2022/10/31 05:18:14;;;;;;;29.03;26.50;;;;;;;;;;5038565;28;20433;-80
2022/10/31 05:20:41;;;;;;;27.63;25.43;;;;;;;;;;5038544;28;20458;-81
2022/10/31 05:23:10;;;;;;;27.97;25.67;;;;;;;;;;5038220;28;20471;-80
2022/10/31 05:25:38;;;;;;;28.47;25.97;;;;;;;;;;5038213;28;20429;-80
2022/10/31 05:28:05;;;;;;;28.27;25.47;;;;;;;;;;5038248;28;20959;-81
2022/10/31 05:30:33;;;;;;;28.97;26.50;;;;;;;;;;5039012;28;20937;-80
2022/10/31 05:33:01;;;;;;;28.07;25.97;;;;;;;;;;5038542;28;20449;-80
2022/10/31 05:35:29;;;;;;;27.53;25.43;;;;;;;;;;5038037;28;20450;-80
2022/10/31 05:37:57;;;;;;;28.13;25.93;;;;;;;;;;5039122;28;20440;-80
2022/10/31 05:40:26;;;;;;;29.70;25.77;;;;;;;;;;5052427;28;20512;-81
2022/10/31 05:42:54;;;;;;;31.13;28.33;;;;;;;;;;5057840;28;20493;-80
2022/10/31 05:45:22;;;;;;;29.37;26.37;;;;;;;;;;5057479;28;20910;-80
2022/10/31 05:47:52;;;;;;;28.53;26.13;;;;;;;;;;5062534;28;20443;-80
2022/10/31 05:50:20;;;;;;;28.50;26.10;;;;;;;;;;5060593;28;20446;-86
2022/10/31 05:52:47;;;;;;;29.27;26.47;;;;;;;;;;5058359;28;20486;-79
2022/10/31 05:55:14;;;;;;;29.30;26.40;;;;;;;;;;5060511;28;20439;-80
2022/10/31 05:57:43;;;;;;;30.87;28.10;;;;;;;;;;5059909;28;20425;-79
2022/10/31 06:00:11;;;;;;;30.20;27.37;;;;;;;;;;5061061;28;20457;-80
2022/10/31 06:02:38;;;;;;;30.90;28.00;;;;;;;;;;5059960;28;20460;-79
2022/10/31 06:05:06;;;;;;;29.30;26.90;;;;;;;;;;5061156;28;20537;-81
2022/10/31 06:07:35;;;;;;;32.03;29.33;;;;;;;;;;5060310;28;20433;-87
2022/10/31 06:10:02;;;;;;;35.60;31.87;;;;;;;;;;5060371;28;20523;-80
2022/10/31 06:12:29;;;;;;;32.97;30.17;;;;;;;;;;5061238;28;20421;-79
2022/10/31 06:14:58;;;;;;;36.43;30.70;;;;;;;;;;5061045;28;20450;-79
2022/10/31 06:17:26;;;;;;;34.10;31.23;;;;;;;;;;5060564;28;20425;-80
2022/10/31 06:19:53;;;;;;;36.10;32.57;;;;;;;;;;5061127;28;20433;-80
2022/10/31 06:22:20;;;;;;;34.90;31.43;;;;;;;;;;5056714;28;20971;-77
2022/10/31 06:24:47;;;;;;;39.33;35.37;;;;;;;;;;5055483;28;20452;-77
2022/10/31 06:27:15;;;;;;;39.60;35.80;;;;;;;;;;5055320;28;20949;-76
2022/10/31 06:29:42;;;;;;;35.30;31.30;;;;;;;;;;5057374;28;20816;-80
2022/10/31 06:32:13;;;;;;;34.43;31.40;;;;;;;;;;5058204;28;20465;-79
2022/10/31 06:34:40;;;;;;;34.33;31.43;;;;;;;;;;5058214;28;20445;-79
2022/10/31 06:37:08;;;;;;;34.93;31.67;;;;;;;;;;5058143;28;20424;-80
2022/10/31 06:39:35;;;;;;;33.97;30.47;;;;;;;;;;5058672;28;20469;-80
2022/10/31 06:42:02;;;;;;;34.93;31.63;;;;;;;;;;5058437;28;20469;-79
2022/10/31 06:44:30;;;;;;;36.20;32.80;;;;;;;;;;5058194;28;20436;-80
2022/10/31 06:46:57;;;;;;;36.20;32.30;;;;;;;;;;5055873;28;20483;-78
2022/10/31 06:49:28;;;;;;;35.60;32.27;;;;;;;;;;5055222;28;20504;-77
2022/10/31 06:51:55;;;;;;;38.00;34.17;;;;;;;;;;5054379;28;20417;-77
2022/10/31 06:54:22;;;;;;;42.20;37.60;;;;;;;;;;5055014;28;20466;-77
2022/10/31 06:56:50;;;;;;;38.13;34.53;;;;;;;;;;5054662;28;20898;-76
2022/10/31 06:59:17;;;;;;;39.73;35.73;;;;;;;;;;5055016;28;20429;-77
2022/10/31 07:01:45;;;;;;;38.87;34.67;;;;;;;;;;5054080;28;20484;-77
2022/10/31 07:04:12;;;;;;;37.83;34.07;;;;;;;;;;5054637;28;20937;-76
2022/10/31 07:06:41;;;;;;;39.03;35.03;;;;;;;;;;5054753;28;20446;-76
2022/10/31 07:09:08;;;;;;;42.33;37.90;;;;;;;;;;5054682;28;20421;-77
2022/10/31 07:11:35;;;;;;;45.10;38.87;;;;;;;;;;5054034;28;20906;-77
2022/10/31 07:14:03;;;;;;;46.30;40.97;;;;;;;;;;5054802;28;20471;-77
2022/10/31 07:16:30;;;;;;;50.13;40.03;;;;;;;;;;5054250;28;20425;-77
2022/10/31 07:18:57;;;;;;;59.77;41.33;;;;;;;;;;5054427;28;20454;-76
2022/10/31 07:21:25;;;;;;;49.70;43.20;;;;;;;;;;5053945;28;20939;-77
2022/10/31 07:23:53;;;;;;;51.70;44.00;;;;;;;;;;5055173;28;20452;-77
2022/10/31 07:26:21;;;;;;;52.70;44.47;;;;;;;;;;5055766;28;20432;-77
2022/10/31 07:28:48;;;;;;;58.87;43.63;;;;;;;;;;5059340;28;20409;-81
2022/10/31 07:31:15;;;;;;;51.10;44.93;;;;;;;;;;5061319;28;20416;-84
2022/10/31 07:33:43;;;;;;;52.03;43.37;;;;;;;;;;5060641;28;20481;-78
2022/10/31 07:36:10;;;;;;;55.13;42.83;;;;;;;;;;5055717;28;20491;-78
2022/10/31 07:38:37;;;;;;;53.07;46.00;;;;;;;;;;5055262;28;20454;-78
2022/10/31 07:41:06;;;;;;;54.40;42.90;;;;;;;;;;5056108;28;20413;-78
2022/10/31 07:43:33;;;;;;;49.20;43.90;;;;;;;;;;5055841;28;20492;-78
2022/10/31 07:46:01;;;;;;;53.53;44.43;;;;;;;;;;5056683;28;20429;-78
2022/10/31 07:48:28;;;;;;;53.50;43.77;;;;;;;;;;5057758;28;20447;-78
2022/10/31 07:50:56;;;;;;;47.87;42.70;;;;;;;;;;5055322;28;20425;-79
2022/10/31 07:53:23;;;;;;;56.23;41.70;;;;;;;;;;5054061;28;20493;-77
2022/10/31 07:55:51;;;;;;;47.17;42.07;;;;;;;;;;5055130;28;20430;-78
2022/10/31 07:58:19;;;;;;;42.87;38.50;;;;;;;;;;5056130;28;20425;-78
2022/10/31 08:00:47;;;;;;;45.60;40.90;;;;;;;;;;5056516;28;20425;-78
2022/10/31 08:03:15;;;;;;;44.40;39.77;;;;;;;;;;5055977;28;20491;-78
2022/10/31 08:05:45;;;;;;;50.57;42.57;;;;;;;;;;5055662;28;20430;-79
2022/10/31 08:08:13;;;;;;;44.53;39.77;;;;;;;;;;5055727;28;20488;-79
2022/10/31 08:10:41;;;;;;;45.13;40.20;;;;;;;;;;5055813;28;20451;-78
2022/10/31 08:13:09;;;;;;;46.37;41.57;;;;;;;;;;5054881;28;21047;-78
2022/10/31 08:15:41;;;;;;;44.93;40.17;;;;;;;;;;5056371;28;20429;-79
2022/10/31 08:18:11;;;;;;;42.43;37.63;;;;;;;;;;5056775;28;20505;-78
2022/10/31 08:20:38;;;;;;;44.47;39.80;;;;;;;;;;5055737;28;20427;-78
2022/10/31 08:23:06;;;;;;;42.97;38.30;;;;;;;;;;5055168;28;20492;-78
2022/10/31 08:25:35;;;;;;;45.23;40.10;;;;;;;;;;5055815;28;20454;-78
2022/10/31 08:28:02;;;;;;;45.80;40.80;;;;;;;;;;5056044;28;20478;-81
2022/10/31 08:30:31;;;;;;;43.47;38.93;;;;;;;;;;5055697;28;20458;-77
2022/10/31 08:33:01;;;;;;;47.00;41.47;;;;;;;;;;5058535;28;20433;-79
2022/10/31 08:35:28;;;;;;;44.53;37.37;;;;;;;;;;5059194;28;20432;-77
2022/10/31 08:37:55;;;;;;;43.50;39.10;;;;;;;;;;5057333;28;20812;-77
2022/10/31 08:40:23;;;;;;;45.23;39.70;;;;;;;;;;5057568;28;20546;-78
2022/10/31 08:42:57;;;;;;;45.37;40.47;;;;;;;;;;5059269;28;20825;-79
2022/10/31 08:45:24;;;;;;;42.80;38.50;;;;;;;;;;5059968;28;20491;-76
2022/10/31 08:47:52;;;;;;;44.70;40.03;;;;;;;;;;5059878;28;20441;-79
2022/10/31 08:50:20;;;;;;;47.80;40.30;;;;;;;;;;5060256;28;20907;-79
2022/10/31 08:52:48;;;;;;;40.70;36.40;;;;;;;;;;5059280;28;20475;-79
2022/10/31 08:55:15;;;;;;;45.40;39.70;;;;;;;;;;5053065;28;20451;-77
2022/10/31 08:57:42;;;;;;;44.03;38.70;;;;;;;;;;5052937;28;20462;-77
2022/10/31 09:00:10;;;;;;;45.80;40.97;;;;;;;;;;5052672;28;20455;-77
2022/10/31 09:02:38;;;;;;;45.93;39.00;;;;;;;;;;5051517;28;20490;-77
2022/10/31 09:05:06;;;;;;;47.10;41.37;;;;;;;;;;5052577;28;20487;-78
2022/10/31 09:07:35;;;;;;;44.67;39.77;;;;;;;;;;5053069;28;20764;-77
2022/10/31 09:10:02;;;;;;;46.73;41.07;;;;;;;;;;5052433;28;20436;-78
2022/10/31 09:12:29;;;;;;;49.63;42.87;;;;;;;;;;5053726;28;20452;-84
2022/10/31 09:14:57;;;;;;;47.13;41.43;;;;;;;;;;5055296;28;20524;-78
2022/10/31 09:17:26;;;;;;;48.10;40.07;;;;;;;;;;5053507;28;20422;-79
2022/10/31 09:19:53;;;;;;;51.50;40.47;;;;;;;;;;5054194;28;20452;-76
2022/10/31 09:22:21;;;;;;;47.67;40.93;;;;;;;;;;5056720;28;20454;-78
2022/10/31 09:24:49;;;;;;;46.40;41.20;;;;;;;;;;5056940;28;20803;-78
2022/10/31 09:27:17;;;;;;;48.00;41.80;;;;;;;;;;5057737;28;20433;-77
2022/10/31 09:29:44;;;;;;;46.63;40.47;;;;;;;;;;5056160;28;20466;-77
2022/10/31 09:32:11;;;;;;;48.73;39.83;;;;;;;;;;5056145;28;20935;-76
2022/10/31 09:34:38;;;;;;;51.47;39.60;;;;;;;;;;5056595;28;20443;-76
2022/10/31 09:37:06;;;;;;;50.17;41.50;;;;;;;;;;5056465;28;20454;-77
2022/10/31 09:39:33;;;;;;;49.70;41.13;;;;;;;;;;5056532;28;20461;-78
2022/10/31 09:42:09;;;;;;;44.77;39.37;;;;;;;;;;5055592;28;20474;-77
2022/10/31 09:44:42;;;;;;;40.77;36.57;;;;;;;;;;5056123;28;20471;-77
2022/10/31 09:47:13;;;;;;;49.43;36.97;;;;;;;;;;5056577;28;20428;-76
2022/10/31 09:49:51;;;;;;;40.03;35.73;;;;;;;;;;5056089;28;20435;-78
2022/10/31 09:52:20;;;;;;;40.80;35.63;;;;;;;;;;5055690;28;20432;-76
2022/10/31 09:54:49;;;;;;;39.00;35.03;;;;;;;;;;5055679;28;20482;-76
2022/10/31 09:57:25;;;;;;;39.57;35.60;;;;;;;;;;5056215;28;20932;-76
2022/10/31 09:59:53;;;;;;;37.40;33.30;;;;;;;;;;5056895;28;20435;-77
2022/10/31 10:02:23;;;;;;;35.30;31.70;;;;;;;;;;5055827;28;20444;-76
2022/10/31 10:04:54;;;;;;;34.90;31.33;;;;;;;;;;5055986;28;20471;-79
2022/10/31 10:07:26;;;;;;;31.10;28.30;;;;;;;;;;5056320;28;20426;-78
2022/10/31 10:09:53;;;;;;;31.83;28.83;;;;;;;;;;5056114;28;20506;-78
2022/10/31 10:12:30;;;;;;;30.37;27.77;;;;;;;;;;5055304;28;20458;-77
2022/10/31 10:15:04;;;;;;;29.97;27.17;;;;;;;;;;5055981;28;20838;-77
2022/10/31 10:17:38;;;;;;;28.90;26.07;;;;;;;;;;5056154;28;20438;-76
2022/10/31 10:20:27;;;;;;;28.67;25.80;;;;;;;;;;5055679;28;20920;-76
2022/10/31 10:22:57;;;;;;;27.23;25.00;;;;;;;;;;5055448;28;20466;-78
2022/10/31 10:25:26;;;;;;;27.63;25.13;;;;;;;;;;5055585;28;20413;-78
2022/10/31 10:28:11;;;;;;;26.17;24.17;;;;;;;;;;5055514;28;20471;-77
2022/10/31 10:30:43;;;;;;;24.27;22.40;;;;;;;;;;5056547;28;20811;-78
2022/10/31 10:33:12;;;;;;;26.23;23.93;;;;;;;;;;5054883;28;20435;-77
2022/10/31 10:35:42;;;;;;;24.70;22.60;;;;;;;;;;5055735;28;20430;-77
2022/10/31 10:38:13;;;;;;;25.80;23.87;;;;;;;;;;5055708;28;20404;-78
2022/10/31 10:40:41;;;;;;;24.97;22.97;;;;;;;;;;5055158;28;20464;-78
2022/10/31 10:43:23;;;;;;;24.73;22.80;;;;;;;;;;5057655;28;20466;-78
2022/10/31 10:48:44;;;;;;;25.80;23.30;;;;;;;;;;5057291;28;20463;-78
2022/10/31 10:51:17;;;;;;;26.43;24.07;;;;;;;;;;5051056;28;20496;-86
2022/10/31 10:54:00;;;;;;;25.53;23.83;;;;;;;;;;5039763;28;20466;-85
2022/10/31 10:56:35;;;;;;;23.33;21.60;;;;;;;;;;5047295;28;20432;-85
2022/10/31 10:59:03;;;;;;;25.20;23.40;;;;;;;;;;5064206;28;20739;-84
2022/10/31 11:01:31;;;;;;;26.23;24.23;;;;;;;;;;5064097;28;20453;-84
2022/10/31 11:03:59;;;;;;;24.90;22.80;;;;;;;;;;5062119;28;20475;-86
2022/10/31 11:06:26;;;;;;;28.50;26.37;;;;;;;;;;5063893;28;20443;-85
2022/10/31 11:08:54;;;;;;;27.23;24.93;;;;;;;;;;5061354;28;20828;-88
2022/10/31 11:11:26;;;;;;;26.07;24.07;;;;;;;;;;5058028;28;20539;-87
2022/10/31 11:13:57;;;;;;;28.03;25.57;;;;;;;;;;5059408;28;20550;-85
2022/10/31 11:16:30;;;;;;;27.30;25.07;;;;;;;;;;5063796;28;20447;-85
2022/10/31 11:19:09;;;;;;;27.50;25.10;;;;;;;;;;5066090;28;20449;-83
2022/10/31 11:21:36;;;;;;;29.63;26.60;;;;;;;;;;5065816;28;20412;-83
2022/10/31 11:24:04;;;;;;;27.13;25.03;;;;;;;;;;5065310;28;20496;-84
2022/10/31 11:26:34;;;;;;;29.80;27.20;;;;;;;;;;5065025;28;20485;-84
2022/10/31 11:29:03;;;;;;;28.53;25.43;;;;;;;;;;5064162;28;20440;-84
2022/10/31 11:31:38;;;;;;;29.87;27.17;;;;;;;;;;5063945;28;20451;-85
2022/10/31 11:34:06;;;;;;;27.43;25.13;;;;;;;;;;5064471;28;20440;-86
2022/10/31 11:36:37;;;;;;;29.40;26.70;;;;;;;;;;5064896;28;20445;-85
2022/10/31 11:39:06;;;;;;;31.27;28.43;;;;;;;;;;5063003;28;20430;-86
2022/10/31 11:41:35;;;;;;;30.43;27.53;;;;;;;;;;5065653;28;20472;-85
2022/10/31 11:44:04;;;;;;;28.97;26.67;;;;;;;;;;5064114;28;20455;-85
2022/10/31 11:46:35;;;;;;;30.17;27.57;;;;;;;;;;5058426;28;20806;-79
2022/10/31 11:49:03;;;;;;;31.57;28.33;;;;;;;;;;5056157;28;20865;-80
2022/10/31 11:51:32;;;;;;;29.80;27.40;;;;;;;;;;5056221;28;20950;-79
2022/10/31 11:54:02;;;;;;;29.37;26.83;;;;;;;;;;5055655;28;20464;-79
2022/10/31 11:56:29;;;;;;;29.83;27.27;;;;;;;;;;5056082;28;20556;-79
2022/10/31 11:58:58;;;;;;;28.70;26.53;;;;;;;;;;5055813;28;20463;-79
2022/10/31 12:01:27;;;;;;;28.10;25.70;;;;;;;;;;5055878;28;20517;-79
2022/10/31 12:04:00;;;;;;;30.77;27.50;;;;;;;;;;5055354;28;20866;-78
2022/10/31 12:06:31;;;;;;;29.33;27.07;;;;;;;;;;5056385;28;20405;-79
2022/10/31 12:08:58;;;;;;;28.20;25.80;;;;;;;;;;5055903;28;20406;-79
2022/10/31 12:11:34;;;;;;;28.03;25.73;;;;;;;;;;5055587;28;20851;-79
2022/10/31 12:14:08;;;;;;;28.13;26.07;;;;;;;;;;5055924;28;20985;-77
2022/10/31 12:16:38;;;;;;;28.90;26.70;;;;;;;;;;5056219;28;20414;-78
2022/10/31 12:19:07;;;;;;;30.13;27.60;;;;;;;;;;5054897;28;20456;-79
2022/10/31 12:21:51;;;;;;;29.60;27.10;;;;;;;;;;5055517;28;20509;-79
2022/10/31 12:24:24;;;;;;;28.23;25.97;;;;;;;;;;5055870;28;20555;-79
2022/10/31 12:26:57;;;;;;;29.93;26.87;;;;;;;;;;5057230;28;20807;-78
2022/10/31 12:29:32;;;;;;;26.80;24.80;;;;;;;;;;5054980;28;20468;-79
2022/10/31 12:32:07;;;;;;;28.73;26.23;;;;;;;;;;5053891;28;20460;-79
2022/10/31 12:34:42;;;;;;;28.70;26.37;;;;;;;;;;5055116;28;20443;-80
2022/10/31 12:37:15;;;;;;;29.70;27.00;;;;;;;;;;5055919;28;20934;-78
2022/10/31 12:39:46;;;;;;;31.87;29.00;;;;;;;;;;5055629;28;20949;-79
2022/10/31 12:42:20;;;;;;;29.80;27.40;;;;;;;;;;5054583;28;20473;-79
2022/10/31 12:45:00;;;;;;;29.07;26.40;;;;;;;;;;5054663;28;20478;-77
2022/10/31 12:47:54;;;;;;;29.50;27.10;;;;;;;;;;5055019;28;20427;-78
2022/10/31 12:50:29;;;;;;;30.17;27.20;;;;;;;;;;5019184;28;20784;-78
2022/10/31 12:53:02;;;;;;;31.80;28.53;;;;;;;;;;5053858;28;20444;-78
2022/10/31 12:55:38;;;;;;;29.57;27.20;;;;;;;;;;5054343;28;20441;-78
2022/10/31 12:58:10;;;;;;;29.70;27.27;;;;;;;;;;5054554;28;20416;-78
2022/10/31 13:00:38;;;;;;;32.23;29.33;;;;;;;;;;5053916;28;21083;-79
2022/10/31 13:03:14;;;;;;;27.77;25.67;;;;;;;;;;5053403;28;20474;-79
2022/10/31 13:05:43;;;;;;;28.27;25.73;;;;;;;;;;5054005;28;20430;-79
2022/10/31 13:08:12;;;;;;;29.13;26.50;;;;;;;;;;5054306;28;20446;-79
2022/10/31 13:10:44;;;;;;;28.30;25.73;;;;;;;;;;5053178;28;20454;-78
2022/10/31 13:13:14;;;;;;;28.47;25.87;;;;;;;;;;5053876;28;20455;-79
2022/10/31 13:15:48;;;;;;;29.13;26.47;;;;;;;;;;5051311;28;20432;-79
2022/10/31 13:18:24;;;;;;;29.87;27.07;;;;;;;;;;5054649;28;20430;-79
2022/10/31 13:20:52;;;;;;;27.77;25.43;;;;;;;;;;5054616;28;20477;-80
2022/10/31 13:23:25;;;;;;;26.50;24.40;;;;;;;;;;5053407;28;20444;-79
2022/10/31 13:25:55;;;;;;;25.90;24.13;;;;;;;;;;5052650;28;20469;-78
2022/10/31 13:28:26;;;;;;;28.20;25.07;;;;;;;;;;5053786;28;20951;-79
2022/10/31 13:30:54;;;;;;;26.93;25.03;;;;;;;;;;5053503;28;20520;-79
2022/10/31 13:33:24;;;;;;;27.17;24.83;;;;;;;;;;5053595;28;20856;-79
2022/10/31 13:35:54;;;;;;;25.77;23.93;;;;;;;;;;5053312;28;20470;-79
2022/10/31 13:38:24;;;;;;;27.10;24.90;;;;;;;;;;5054052;28;20884;-79
2022/10/31 13:40:55;;;;;;;27.03;25.03;;;;;;;;;;5053593;28;20431;-78
2022/10/31 13:43:29;;;;;;;25.77;23.77;;;;;;;;;;5053255;28;20448;-78
2022/10/31 13:45:57;;;;;;;26.90;24.90;;;;;;;;;;5053712;28;20460;-78
2022/10/31 13:48:38;;;;;;;27.37;25.40;;;;;;;;;;5053115;28;20468;-78
2022/10/31 13:51:07;;;;;;;28.00;25.47;;;;;;;;;;5053697;28;20451;-79
2022/10/31 13:53:53;;;;;;;26.83;24.60;;;;;;;;;;5053153;28;20445;-78
2022/10/31 13:56:23;;;;;;;25.37;23.67;;;;;;;;;;5053637;28;20477;-79
2022/10/31 13:59:00;;;;;;;27.90;25.67;;;;;;;;;;5053395;28;20487;-79
2022/10/31 14:01:29;;;;;;;27.47;25.53;;;;;;;;;;5053358;28;20456;-79
2022/10/31 14:03:58;;;;;;;30.23;27.50;;;;;;;;;;5053672;28;21008;-79
2022/10/31 14:06:35;;;;;;;29.03;26.40;;;;;;;;;;5053668;28;20442;-79
2022/10/31 14:09:03;;;;;;;27.73;25.83;;;;;;;;;;5057721;28;20434;-79
2022/10/31 14:11:31;;;;;;;29.80;27.40;;;;;;;;;;5056956;28;20850;-79
2022/10/31 14:14:00;;;;;;;29.33;27.00;;;;;;;;;;5056804;28;20478;-79
2022/10/31 14:16:29;;;;;;;27.40;25.70;;;;;;;;;;5057107;28;20428;-78
2022/10/31 14:19:00;;;;;;;29.10;26.73;;;;;;;;;;5057427;28;20461;-79
2022/10/31 14:21:32;;;;;;;26.37;24.53;;;;;;;;;;5056672;28;20444;-78
2022/10/31 14:24:00;;;;;;;27.77;25.67;;;;;;;;;;5056472;28;20489;-79
2022/10/31 14:26:35;;;;;;;30.27;27.87;;;;;;;;;;5056279;28;20420;-79
2022/10/31 14:29:06;;;;;;;29.30;26.97;;;;;;;;;;5056217;28;20446;-79
2022/10/31 14:31:36;;;;;;;28.70;25.87;;;;;;;;;;5056370;28;20451;-78
2022/10/31 14:34:07;;;;;;;29.47;27.27;;;;;;;;;;5056657;28;20498;-79